DLBO2: Little Beaver nr Duncan

                                SHEF ID:       DLBO2     Little Beaver Creek near Duncan,
STATION TYPE:

PRECIP STAGE RIV-FLOW BAT-LOAD
in ft cfs volt
Ccp-Rev Ccp-Rev Ccp-Rev Ccp-Rev
(America/Chicago)
04/04 00:00 0.00 8.64 56 12.07
04/04 01:00 0.00 8.62 54 12.14
04/04 02:00 0.00 8.70 61 12.19
04/04 03:00 0.00 8.69 60 12.14
04/04 04:00 0.00 8.75 65 12.14
04/04 05:00 0.00 9.30 114 12.08
04/04 06:00 0.00 12.49 709 12.11
04/04 07:00 0.00 14.90 1286 12.04
04/04 08:00 0.00 15.15 1346 12.03
04/04 09:00 0.00 15.77 1495 12.41
04/04 10:00 0.00 15.97 1543 13.26
04/04 11:00 0.00 15.64 1464 13.09
04/04 12:00 0.00 14.89 1284 13.00
04/04 13:00 0.00 13.89 1044 12.77
04/04 14:00 0.00 13.13 862 12.71
04/04 15:00 0.00 12.61 738 12.54
04/04 16:00 0.00 12.03 599 12.46
04/04 17:00 0.00 11.57 489 12.45
04/04 18:00 0.00 11.17 393 12.47
04/04 19:00 0.00 10.83 311 12.28
04/04 20:00 0.00 10.63 263 12.18
04/04 21:00 0.00 10.52 237 12.19
04/04 22:00 0.00 10.31 203 12.22
04/04 23:00 0.00 10.12 187 12.17
Data processed at Sun 05Apr2026 04:56 GMT

NOTICE: If you are parsing this page

Please convert to using our Data API. Starting early 2026 we will be migrating to: https://water.usace.army.mil with modern pages rendered in JavaScript. When this migration completes you will no longer be able to scrape this page! CWMSDataAPI (CDA)

Timeseries IDs (TSIDs)

TSIDs used from left to right in the data table
DUNC.Precip-Inc.Total.1Hour.1Hour.Ccp-Rev
DUNC.Stage.Inst.1Hour.0.Ccp-Rev
DUNC.Flow.Inst.1Hour.0.Ccp-Rev
DUNC.Volt-Battery Load.Inst.1Hour.0.Ccp-Rev

                            

All information presented herein is the property of the government of the United States of America and may be revised or deleted at any time without prior notice. Dissemination of this information without the expressed written consent of the Public Affairs Office, Tulsa District U.S. Army Corps of Engineers is strictly prohibited. These data are gathered electronically and, as presented, have NOT undergone any form of quality control. These data are NOT guaranteed to be valid or correct.